Time;durP1;ratioP1;P1;durP2;ratioP2;P2;SDS_P1;SDS_P2;PMS_P1;PMS_P2;Temp;Humidity;BMP_temperature;BMP_pressure;BME280_temperature;BME280_humidity;BME280_pressure;Samples;Min_cycle;Max_cycle;Signal;HPM_P1;HPM_P2
2022/12/10 00:01:33;;;;;;;102.80;36.40;;;-2.60;99.90;;;;;;6189281;23;20441;-78
2022/12/10 00:03:59;;;;;;;92.47;35.83;;;-2.40;99.90;;;;;;6188889;23;20038;-85
2022/12/10 00:06:30;;;;;;;102.70;39.03;;;-2.70;99.90;;;;;;6192904;23;20066;-82
2022/12/10 00:08:56;;;;;;;95.05;37.35;;;-2.70;99.90;;;;;;6192000;23;20012;-83
2022/12/10 00:11:23;;;;;;;96.65;36.20;;;-2.30;99.90;;;;;;6192930;23;20012;-80
2022/12/10 00:13:51;;;;;;;99.20;36.10;;;-2.40;99.90;;;;;;6192981;23;20023;-83
2022/12/10 00:16:19;;;;;;;100.45;36.83;;;-2.50;99.90;;;;;;6227888;23;20012;-82
2022/12/10 00:18:45;;;;;;;99.55;37.55;;;-2.50;99.90;;;;;;6205291;23;20019;-80
2022/12/10 00:21:13;;;;;;;100.40;36.53;;;-2.70;99.90;;;;;;6194058;23;20048;-82
2022/12/10 00:23:40;;;;;;;96.43;38.47;;;-2.50;99.90;;;;;;6217883;23;20016;-83
2022/12/10 00:26:29;;;;;;;98.97;36.88;;;-2.60;99.90;;;;;;6224432;23;20026;-79
2022/12/10 00:28:55;;;;;;;103.63;37.38;;;-2.50;99.90;;;;;;6229847;23;20019;-78
2022/12/10 00:31:24;;;;;;;91.93;36.17;;;-2.70;99.90;;;;;;6214710;23;20091;-80
2022/12/10 00:33:50;;;;;;;97.07;35.83;;;-2.80;99.90;;;;;;6239144;23;20117;-80
2022/12/10 00:36:22;;;;;;;89.97;35.65;;;-2.70;99.90;;;;;;6188596;23;20038;-81
2022/12/10 00:38:49;;;;;;;96.25;35.22;;;-2.50;99.90;;;;;;6210966;23;20012;-80
2022/12/10 00:41:16;;;;;;;96.28;36.85;;;-2.50;99.90;;;;;;6214579;23;20012;-80
2022/12/10 00:43:42;;;;;;;90.60;35.08;;;-2.50;99.90;;;;;;6182195;23;20024;-79
2022/12/10 00:46:09;;;;;;;101.30;36.20;;;-2.50;99.90;;;;;;6158938;23;20017;-82
2022/12/10 00:48:35;;;;;;;97.10;36.70;;;-2.90;99.90;;;;;;6183637;23;20087;-83
2022/12/10 00:51:08;;;;;;;104.90;37.78;;;-2.60;99.90;;;;;;6206860;23;20040;-85
2022/12/10 00:53:35;;;;;;;107.82;38.72;;;-2.60;99.90;;;;;;6209916;23;20091;-81
2022/12/10 00:56:01;;;;;;;107.18;38.33;;;-2.90;99.90;;;;;;6182803;23;20440;-85
2022/12/10 00:58:29;;;;;;;106.72;38.15;;;-2.50;99.90;;;;;;6210554;23;20028;-82
2022/12/10 01:01:05;;;;;;;98.15;38.30;;;-2.60;99.90;;;;;;6209762;23;20070;-84
2022/12/10 01:03:31;;;;;;;110.05;38.65;;;-2.60;99.90;;;;;;6186940;23;20013;-82
2022/12/10 01:05:56;;;;;;;107.85;38.60;;;-2.90;99.90;;;;;;6210226;23;20024;-83
2022/12/10 01:08:22;;;;;;;102.30;38.42;;;-2.90;99.90;;;;;;6209518;23;20482;-82
2022/12/10 01:10:53;;;;;;;104.82;39.53;;;-2.60;99.90;;;;;;6183418;23;20009;-83
2022/12/10 01:13:18;;;;;;;107.47;38.78;;;-2.70;99.90;;;;;;6210572;23;20032;-81
2022/12/10 01:15:44;;;;;;;107.95;39.65;;;-2.60;99.90;;;;;;6185672;23;20070;-80
2022/12/10 01:18:10;;;;;;;110.43;38.05;;;-2.70;99.90;;;;;;6186404;23;20288;-78
2022/12/10 01:20:36;;;;;;;106.20;38.17;;;-2.60;99.90;;;;;;6186649;23;20047;-81
2022/12/10 01:23:02;;;;;;;100.78;38.78;;;-2.80;99.90;;;;;;6219972;23;20040;-79
2022/12/10 01:25:28;;;;;;;111.63;39.53;;;-2.70;99.90;;;;;;6218706;23;20027;-82
2022/12/10 01:27:54;;;;;;;113.50;39.50;;;-2.70;99.90;;;;;;6211088;23;20095;-84
2022/12/10 01:30:19;;;;;;;107.88;39.88;;;-2.80;99.90;;;;;;6184336;23;20020;-81
2022/12/10 01:32:46;;;;;;;115.85;42.42;;;-2.90;99.90;;;;;;6185627;23;20079;-82
2022/12/10 01:35:12;;;;;;;112.07;42.10;;;-2.80;99.90;;;;;;6210608;23;20020;-83
2022/12/10 01:37:37;;;;;;;108.38;40.92;;;-3.00;99.90;;;;;;6186804;23;20027;-81
2022/12/10 01:40:03;;;;;;;119.55;42.00;;;-2.80;99.90;;;;;;6209700;23;20077;-84
2022/12/10 01:42:29;;;;;;;107.10;39.85;;;-2.90;99.90;;;;;;6187957;23;20344;-80
2022/12/10 01:48:31;;;;;;;125.38;42.35;;;-3.00;99.90;;;;;;6219185;23;20115;-78
2022/12/10 01:50:57;;;;;;;126.53;42.97;;;-2.80;99.90;;;;;;6225362;23;20047;-79
2022/12/10 01:53:23;;;;;;;130.10;44.13;;;-3.00;99.90;;;;;;6218866;23;20016;-84
2022/12/10 01:55:50;;;;;;;126.53;43.70;;;-2.90;99.90;;;;;;6211004;23;20017;-84
2022/12/10 01:58:18;;;;;;;132.75;43.90;;;-2.70;99.90;;;;;;6188778;23;20016;-79
2022/12/10 02:00:53;;;;;;;124.53;44.65;;;-2.70;99.90;;;;;;6213526;23;20021;-80
2022/12/10 02:03:48;;;;;;;132.00;43.83;;;-3.00;99.90;;;;;;6190832;23;20008;-82
2022/12/10 02:06:42;;;;;;;140.38;45.22;;;-3.00;99.90;;;;;;6214186;23;20325;-82
2022/12/10 02:09:46;;;;;;;130.65;43.63;;;-2.60;99.90;;;;;;6163917;23;20012;-81
2022/12/10 02:12:35;;;;;;;132.80;44.78;;;-2.50;99.90;;;;;;6210112;23;20055;-83
2022/12/10 02:15:26;;;;;;;128.63;43.33;;;-2.90;99.90;;;;;;6215689;23;20027;-80
2022/12/10 02:18:07;;;;;;;122.55;42.28;;;-2.60;99.90;;;;;;6213009;23;20372;-84
2022/12/10 02:20:37;;;;;;;127.75;43.42;;;-3.00;99.90;;;;;;6212494;23;20394;-81
2022/12/10 02:23:09;;;;;;;125.68;44.22;;;-2.90;99.90;;;;;;6211621;23;20058;-86
2022/12/10 02:25:54;;;;;;;126.55;44.60;;;-2.90;99.90;;;;;;6210501;23;20020;-82
2022/12/10 02:28:45;;;;;;;135.25;46.30;;;-2.50;99.90;;;;;;6211749;23;20009;-82
2022/12/10 02:31:14;;;;;;;124.13;43.08;;;-2.80;99.90;;;;;;6209778;23;20013;-81
2022/12/10 02:33:46;;;;;;;125.22;44.33;;;-2.70;99.90;;;;;;6184594;23;20416;-80
2022/12/10 02:36:14;;;;;;;128.52;44.10;;;-2.50;99.90;;;;;;6184482;23;20436;-82
2022/12/10 02:38:41;;;;;;;136.43;46.00;;;-2.90;99.90;;;;;;6209120;23;20020;-81
2022/12/10 02:41:24;;;;;;;124.55;43.80;;;-2.50;99.90;;;;;;6160122;23;20034;-84
2022/12/10 02:43:52;;;;;;;132.93;45.05;;;-2.80;99.90;;;;;;6205711;23;20100;-80
2022/12/10 02:46:55;;;;;;;128.60;46.13;;;-2.70;99.90;;;;;;6161175;23;20087;-84
2022/12/10 02:49:25;;;;;;;121.53;42.33;;;-2.90;99.90;;;;;;6185117;23;20096;-83
2022/12/10 02:51:52;;;;;;;127.53;43.63;;;-2.80;99.90;;;;;;6159243;23;20044;-82
2022/12/10 02:54:41;;;;;;;119.35;43.53;;;-2.60;99.90;;;;;;6159113;23;20005;-80
2022/12/10 02:57:33;;;;;;;124.40;42.80;;;-2.80;99.90;;;;;;6160393;23;20016;-83
2022/12/10 03:00:20;;;;;;;125.32;43.67;;;-3.00;99.90;;;;;;6184381;23;20024;-83
2022/12/10 03:02:54;;;;;;;118.00;43.20;;;-2.80;99.90;;;;;;6161110;23;20108;-81
2022/12/10 03:05:35;;;;;;;130.75;44.45;;;-2.80;99.90;;;;;;6161361;23;20027;-82
2022/12/10 03:08:18;;;;;;;129.57;44.35;;;-3.00;99.90;;;;;;6159715;23;20009;-81
2022/12/10 03:11:13;;;;;;;132.20;44.08;;;-2.70;99.90;;;;;;6159141;23;20084;-80
2022/12/10 03:13:48;;;;;;;137.32;44.35;;;-2.90;99.90;;;;;;6014672;23;20548;-85
2022/12/10 03:16:17;;;;;;;131.82;45.60;;;-3.00;99.90;;;;;;6015782;23;20387;-82
2022/12/10 03:18:44;;;;;;;127.28;44.00;;;-3.10;99.90;;;;;;6015071;23;20018;-82
2022/12/10 03:21:10;;;;;;;125.68;43.30;;;-2.90;99.90;;;;;;6045492;23;20030;-80
2022/12/10 03:23:41;;;;;;;125.95;45.90;;;-2.70;99.90;;;;;;6022837;23;20015;-79
2022/12/10 03:26:10;;;;;;;138.90;45.42;;;-3.10;99.90;;;;;;6025293;23;20126;-80
2022/12/10 03:28:45;;;;;;;128.95;44.40;;;-3.10;99.90;;;;;;6028811;23;20045;-78
2022/12/10 03:31:12;;;;;;;134.75;45.10;;;-3.10;99.90;;;;;;6075826;23;20090;-81
2022/12/10 03:33:39;;;;;;;133.80;43.30;;;-2.70;99.90;;;;;;6046927;23;20011;-81
2022/12/10 03:36:06;;;;;;;133.23;45.33;;;-2.90;99.90;;;;;;6039760;23;20428;-84
2022/12/10 03:38:33;;;;;;;124.38;43.90;;;-3.20;99.90;;;;;;6012248;23;20018;-80
2022/12/10 03:40:59;;;;;;;125.15;45.40;;;-3.20;99.90;;;;;;6060327;23;20023;-83
2022/12/10 03:43:25;;;;;;;126.03;43.35;;;-3.20;99.90;;;;;;6013570;23;20027;-85
2022/12/10 03:45:51;;;;;;;120.13;43.47;;;-3.00;99.90;;;;;;6059920;23;20046;-81
2022/12/10 03:48:16;;;;;;;117.60;43.13;;;-3.00;99.90;;;;;;6035790;23;20086;-83
2022/12/10 03:50:42;;;;;;;123.30;45.00;;;-3.30;99.90;;;;;;6103756;23;20016;-81
2022/12/10 03:53:08;;;;;;;121.13;43.10;;;-3.20;99.90;;;;;;6160450;23;20012;-84
2022/12/10 03:55:33;;;;;;;134.23;45.08;;;-3.20;99.90;;;;;;6183601;23;20444;-79
2022/12/10 03:57:59;;;;;;;133.88;45.95;;;-3.20;99.90;;;;;;6184550;23;20017;-82
2022/12/10 04:00:26;;;;;;;145.50;47.80;;;-2.80;99.90;;;;;;6184627;23;20017;-82
2022/12/10 04:02:51;;;;;;;135.75;46.60;;;-2.80;99.90;;;;;;6186364;23;20020;-79
2022/12/10 04:05:17;;;;;;;140.68;46.30;;;-3.00;99.90;;;;;;6161464;23;20504;-82
2022/12/10 04:07:43;;;;;;;136.75;45.42;;;-2.90;99.90;;;;;;6184602;23;20479;-79
2022/12/10 04:10:08;;;;;;;136.98;45.83;;;-2.90;99.90;;;;;;6182731;23;20012;-83
2022/12/10 04:12:34;;;;;;;140.55;47.50;;;-2.90;99.90;;;;;;6183609;23;20012;-82
2022/12/10 04:17:44;;;;;;;123.03;44.55;;;-2.70;99.90;;;;;;6184802;23;20360;-82
2022/12/10 04:26:51;;;;;;;134.73;45.70;;;-2.60;99.90;;;;;;6185282;23;20016;-83
2022/12/10 04:28:24;;;;;;;122.03;45.72;;;-2.60;99.90;;;;;;6186924;23;20095;-80
2022/12/10 04:30:49;;;;;;;134.73;46.58;;;-3.00;99.90;;;;;;6161241;23;20070;-83
2022/12/10 04:33:15;;;;;;;134.52;45.40;;;-3.00;99.90;;;;;;6185718;23;20019;-80
2022/12/10 04:35:41;;;;;;;123.28;44.50;;;-2.70;99.90;;;;;;6161289;23;20321;-83
2022/12/10 04:38:06;;;;;;;128.65;44.20;;;-2.90;99.90;;;;;;6187927;23;20016;-82
2022/12/10 04:40:33;;;;;;;140.90;47.00;;;-2.80;99.90;;;;;;6162745;23;20015;-84
2022/12/10 04:42:59;;;;;;;128.50;45.53;;;-2.90;99.90;;;;;;6164201;23;20503;-81
2022/12/10 04:45:24;;;;;;;120.07;42.85;;;-2.90;99.90;;;;;;6188459;23;20016;-83
2022/12/10 04:47:50;;;;;;;139.00;46.15;;;-2.90;99.90;;;;;;6163723;23;20104;-80
2022/12/10 04:50:16;;;;;;;134.77;48.17;;;-2.50;99.90;;;;;;6189917;23;20017;-80
2022/12/10 04:52:41;;;;;;;139.30;48.17;;;-2.50;99.90;;;;;;6166509;23;20040;-82
2022/12/10 04:55:08;;;;;;;139.60;47.85;;;-2.30;99.90;;;;;;6162972;23;20440;-79
2022/12/10 04:57:33;;;;;;;154.68;47.83;;;-2.50;99.90;;;;;;6188173;23;20401;-81
2022/12/10 04:59:59;;;;;;;138.35;46.83;;;-2.70;99.90;;;;;;6191043;23;20024;-80
2022/12/10 05:02:25;;;;;;;141.88;48.90;;;-2.40;99.90;;;;;;6170137;23;20012;-78
2022/12/10 05:04:50;;;;;;;141.55;48.65;;;-2.30;99.90;;;;;;6203067;23;20079;-78
2022/12/10 05:07:16;;;;;;;157.00;50.60;;;-2.30;99.90;;;;;;6204526;23;20063;-80
2022/12/10 05:09:41;;;;;;;148.75;48.92;;;-2.20;99.90;;;;;;6170661;23;20047;-81
2022/12/10 05:12:07;;;;;;;163.95;50.70;;;-2.30;99.90;;;;;;6191218;23;20012;-81
2022/12/10 05:18:55;;;;;;;163.05;50.65;;;-2.10;99.90;;;;;;6215490;23;20012;-83
2022/12/10 05:21:22;;;;;;;158.68;52.00;;;-2.30;99.90;;;;;;6185643;23;20440;-82
2022/12/10 05:23:50;;;;;;;158.27;49.85;;;-2.20;99.90;;;;;;6160332;23;20017;-83
2022/12/10 05:26:19;;;;;;;166.68;51.78;;;-2.20;99.90;;;;;;6159967;23;20013;-83
2022/12/10 05:28:54;;;;;;;163.95;49.88;;;-2.20;99.90;;;;;;6184932;23;20016;-84
2022/12/10 05:31:28;;;;;;;181.73;51.97;;;-2.10;99.90;;;;;;6186524;23;20048;-83
2022/12/10 05:33:54;;;;;;;187.73;53.50;;;-1.80;99.90;;;;;;6159826;23;20020;-81
2022/12/10 05:36:22;;;;;;;201.13;52.55;;;-1.80;99.90;;;;;;6135107;23;20739;-83
2022/12/10 05:38:49;;;;;;;207.73;53.58;;;-2.00;99.90;;;;;;6185213;23;20017;-86
2022/12/10 05:41:20;;;;;;;207.13;52.55;;;-1.70;99.90;;;;;;6160169;23;20031;-82
2022/12/10 05:43:46;;;;;;;196.27;52.58;;;-1.70;99.90;;;;;;6161656;23;20514;-82
2022/12/10 05:46:22;;;;;;;189.80;52.67;;;-1.60;99.90;;;;;;6215821;23;20020;-82
2022/12/10 05:48:49;;;;;;;312.25;56.15;;;-2.00;99.90;;;;;;6215001;23;20409;-79
2022/12/10 05:51:24;;;;;;;252.25;56.47;;;-1.70;99.90;;;;;;6215481;23;20008;-80
2022/12/10 05:53:50;;;;;;;;;;;-1.60;99.90;;;;;;6190173;23;20333;-80
2022/12/10 05:56:18;;;;;;;224.50;52.35;;;-1.80;99.90;;;;;;6189006;23;19912;-84
2022/12/10 05:58:46;;;;;;;254.40;55.05;;;-2.00;99.90;;;;;;6191249;23;20035;-79
2022/12/10 06:01:18;;;;;;;215.20;51.08;;;-1.60;99.90;;;;;;6192464;23;20016;-80
2022/12/10 06:03:44;;;;;;;248.57;53.20;;;-1.60;99.90;;;;;;6193458;23;20103;-85
2022/12/10 06:06:10;;;;;;;218.13;53.00;;;-1.70;99.90;;;;;;6192596;23;20016;-79
2022/12/10 06:08:37;;;;;;;248.68;55.72;;;-1.60;99.90;;;;;;6193681;23;20013;-84
2022/12/10 06:11:08;;;;;;;234.68;55.00;;;-1.90;99.90;;;;;;6196172;23;20112;-80
2022/12/10 06:13:35;;;;;;;246.00;52.40;;;-1.90;99.90;;;;;;6173857;23;20016;-80
2022/12/10 06:16:06;;;;;;;288.23;53.63;;;-1.90;99.90;;;;;;6219951;23;20016;-84
2022/12/10 06:18:33;;;;;;;390.05;55.15;;;-1.90;99.90;;;;;;6190943;22;20016;-81
2022/12/10 06:21:02;;;;;;;311.60;52.60;;;-1.60;99.90;;;;;;6190482;23;20016;-83
2022/12/10 06:23:27;;;;;;;339.73;54.67;;;-2.00;99.90;;;;;;6167828;23;20050;-81
2022/12/10 06:25:53;;;;;;;315.13;55.00;;;-1.90;99.90;;;;;;6190978;23;20348;-82
2022/12/10 06:28:19;;;;;;;298.10;53.83;;;-2.00;99.90;;;;;;6217712;23;20030;-82
2022/12/10 06:30:44;;;;;;;319.48;54.83;;;-1.90;99.90;;;;;;6217246;23;20386;-83
2022/12/10 06:33:10;;;;;;;457.83;55.75;;;-1.80;99.90;;;;;;6216507;23;20019;-82
2022/12/10 06:35:37;;;;;;;410.35;54.60;;;-1.60;99.90;;;;;;6192655;23;20099;-85
2022/12/10 06:38:03;;;;;;;450.90;57.25;;;-2.00;99.90;;;;;;6218978;23;20134;-83
2022/12/10 06:40:29;;;;;;;348.08;53.10;;;-1.90;99.90;;;;;;6230404;23;20020;-79
2022/12/10 06:42:54;;;;;;;245.93;50.92;;;-1.60;99.90;;;;;;6234774;23;20042;-77
2022/12/10 06:45:20;;;;;;;316.70;51.80;;;-1.60;99.90;;;;;;6221883;23;20016;-79
2022/12/10 06:47:47;;;;;;;388.60;52.97;;;-1.80;99.90;;;;;;6222540;23;20020;-79
2022/12/10 06:50:13;;;;;;;433.05;54.75;;;-1.60;99.90;;;;;;6214817;23;20025;-80
2022/12/10 06:52:39;;;;;;;439.60;54.88;;;-1.90;99.90;;;;;;6211111;23;20023;-81
2022/12/10 06:55:05;;;;;;;428.88;50.78;;;-1.70;99.90;;;;;;6210844;23;20008;-82
2022/12/10 06:57:33;;;;;;;506.95;52.30;;;-1.70;99.90;;;;;;6210982;23;20012;-81
2022/12/10 06:59:58;;;;;;;395.70;54.42;;;-1.80;99.90;;;;;;6184678;23;20012;-83
2022/12/10 07:02:24;;;;;;;436.02;54.55;;;-1.60;99.90;;;;;;6185731;23;20070;-82
2022/12/10 07:04:50;;;;;;;301.52;52.42;;;-1.60;99.90;;;;;;6183823;23;20021;-82
2022/12/10 07:07:15;;;;;;;292.20;53.15;;;-1.70;99.90;;;;;;6210271;23;20019;-82
2022/12/10 07:09:41;;;;;;;348.20;51.17;;;-1.60;99.90;;;;;;6183458;23;20413;-83
2022/12/10 07:12:08;;;;;;;341.15;53.22;;;-1.60;99.90;;;;;;6183178;23;20009;-81
2022/12/10 07:14:33;;;;;;;425.70;51.08;;;-1.90;99.90;;;;;;6211582;23;20818;-81
2022/12/10 07:17:02;;;;;;;394.02;52.03;;;-1.80;99.90;;;;;;6209557;23;20044;-83
2022/12/10 07:19:30;;;;;;;401.23;51.13;;;-1.90;99.90;;;;;;6209227;23;20163;-79
2022/12/10 07:21:56;;;;;;;435.20;52.03;;;-1.50;99.90;;;;;;6211390;23;20040;-83
2022/12/10 07:24:22;;;;;;;502.58;52.50;;;-1.70;99.90;;;;;;6183465;23;20020;-81
2022/12/10 07:26:47;;;;;;;270.40;47.42;;;-1.90;99.90;;;;;;6183614;23;20020;-80
2022/12/10 07:29:19;;;;;;;295.58;50.03;;;-1.70;99.90;;;;;;6209496;23;20008;-81
2022/12/10 07:31:46;;;;;;;252.07;50.88;;;-2.00;99.90;;;;;;6184829;23;20019;-82
2022/12/10 07:34:12;;;;;;;298.30;52.20;;;-1.90;99.90;;;;;;6185080;23;20013;-83
2022/12/10 07:36:38;;;;;;;284.63;50.90;;;-1.90;99.90;;;;;;6184624;23;20051;-83
2022/12/10 07:39:08;;;;;;;261.23;49.17;;;-1.70;99.90;;;;;;6181918;23;20021;-82
2022/12/10 07:41:35;;;;;;;283.60;50.80;;;-1.90;99.90;;;;;;6182377;23;20012;-82
2022/12/10 07:44:06;;;;;;;349.08;51.63;;;-1.60;99.90;;;;;;6186098;23;20024;-80
2022/12/10 07:46:33;;;;;;;258.13;49.03;;;-2.00;99.90;;;;;;6190366;23;20039;-79
2022/12/10 07:49:01;;;;;;;353.48;49.85;;;-1.60;99.90;;;;;;6220965;23;20016;-85
2022/12/10 07:51:27;;;;;;;420.20;50.67;;;-1.70;99.90;;;;;;6218101;23;20451;-80
2022/12/10 07:53:54;;;;;;;534.83;51.55;;;-1.80;99.90;;;;;;6191719;23;20044;-85
2022/12/10 07:56:22;;;;;;;308.38;44.70;;;-1.90;99.90;;;;;;6191292;23;20122;-81
2022/12/10 07:58:48;;;;;;;271.70;43.80;;;-2.00;99.90;;;;;;6192465;23;20016;-81
2022/12/10 08:01:22;;;;;;;309.45;44.88;;;-2.10;99.90;;;;;;6219543;23;20018;-82
2022/12/10 08:03:48;;;;;;;347.52;46.40;;;-2.10;99.90;;;;;;6248896;23;20012;-82
2022/12/10 08:06:23;;;;;;;296.27;44.90;;;-1.80;99.90;;;;;;6220502;23;20031;-79
2022/12/10 08:08:49;;;;;;;260.80;44.53;;;-1.90;99.90;;;;;;6247712;23;20055;-84
2022/12/10 08:11:17;;;;;;;214.70;45.20;;;-1.90;99.90;;;;;;6197159;23;20026;-83
2022/12/10 08:13:43;;;;;;;219.68;46.28;;;-1.80;99.90;;;;;;6197658;23;20008;-82
2022/12/10 08:19:50;;;;;;;274.15;43.50;;;-2.00;99.90;;;;;;6251283;22;20085;-79
2022/12/10 08:22:16;;;;;;;288.73;43.47;;;-1.80;99.90;;;;;;6225763;23;20023;-79
2022/12/10 08:24:42;;;;;;;324.65;44.25;;;-2.10;99.90;;;;;;6195021;23;20019;-84
2022/12/10 08:27:07;;;;;;;277.23;45.53;;;-2.10;99.90;;;;;;6215896;23;20004;-82
2022/12/10 08:29:33;;;;;;;267.00;46.53;;;-2.10;99.90;;;;;;6191553;23;20070;-83
2022/12/10 08:31:59;;;;;;;241.43;43.15;;;-2.10;99.90;;;;;;6189908;23;20027;-83
2022/12/10 08:34:25;;;;;;;234.07;43.60;;;-1.90;99.90;;;;;;6210573;23;20023;-81
2022/12/10 08:36:50;;;;;;;168.43;43.28;;;-1.70;99.90;;;;;;6212009;23;20020;-80
2022/12/10 08:39:16;;;;;;;208.00;43.67;;;-1.90;99.90;;;;;;6210332;23;20105;-82
2022/12/10 08:41:44;;;;;;;239.98;42.78;;;-1.80;99.90;;;;;;6186902;23;20012;-79
2022/12/10 08:44:11;;;;;;;222.85;43.53;;;-2.20;99.90;;;;;;6184846;23;20027;-79
2022/12/10 08:46:37;;;;;;;151.73;38.17;;;-2.00;99.90;;;;;;6214913;23;20020;-79
2022/12/10 08:49:06;;;;;;;216.60;38.58;;;-2.10;99.90;;;;;;6188230;23;20019;-80
2022/12/10 08:51:33;;;;;;;220.57;39.03;;;-2.20;99.90;;;;;;6188653;23;20086;-79
2022/12/10 08:53:59;;;;;;;229.52;40.28;;;-2.10;99.90;;;;;;6236514;23;20078;-79
2022/12/10 08:56:24;;;;;;;234.88;39.58;;;-2.00;99.90;;;;;;6189066;23;20020;-80
2022/12/10 08:58:50;;;;;;;180.38;37.83;;;-2.00;99.90;;;;;;6186744;23;20016;-81
2022/12/10 09:01:36;;;;;;;139.00;37.58;;;-2.20;99.90;;;;;;6187710;23;20059;-83
2022/12/10 09:04:03;;;;;;;139.32;38.90;;;-1.90;99.90;;;;;;6187233;23;20684;-82
2022/12/10 09:06:31;;;;;;;164.93;36.67;;;-1.90;99.90;;;;;;6184802;23;20032;-80
2022/12/10 09:08:57;;;;;;;226.10;37.88;;;-2.00;99.90;;;;;;6213743;23;20107;-82
2022/12/10 09:11:32;;;;;;;126.50;34.78;;;-1.80;99.90;;;;;;6213853;23;20020;-78
2022/12/10 09:13:58;;;;;;;162.70;37.45;;;-2.20;99.90;;;;;;6212905;23;20015;-82
2022/12/10 09:16:35;;;;;;;169.82;36.03;;;-1.80;99.90;;;;;;6217839;23;20020;-79
2022/12/10 09:19:01;;;;;;;162.10;37.75;;;-1.80;99.90;;;;;;6217091;23;20019;-83
2022/12/10 09:21:27;;;;;;;155.13;37.58;;;-1.90;99.90;;;;;;6191480;23;20313;-81
2022/12/10 09:23:53;;;;;;;187.38;35.20;;;-2.10;99.90;;;;;;6166744;23;20095;-81
2022/12/10 09:26:20;;;;;;;187.68;37.15;;;-1.80;99.90;;;;;;6190860;23;20052;-78
2022/12/10 09:28:47;;;;;;;195.10;35.83;;;-1.70;99.90;;;;;;6190793;23;20404;-80
2022/12/10 09:31:15;;;;;;;177.85;35.40;;;-1.90;99.90;;;;;;6213525;23;20035;-79
2022/12/10 09:33:41;;;;;;;147.63;36.55;;;-2.00;99.90;;;;;;6191246;23;20019;-80
2022/12/10 09:36:08;;;;;;;178.82;36.97;;;-1.60;99.90;;;;;;6194336;23;20059;-80
2022/12/10 09:38:36;;;;;;;200.18;39.55;;;-1.90;99.90;;;;;;6193908;23;20020;-81
2022/12/10 09:41:04;;;;;;;121.50;35.60;;;-1.60;99.90;;;;;;6218794;23;20031;-82
2022/12/10 09:43:59;;;;;;;137.95;34.97;;;-1.90;99.90;;;;;;6193889;23;20012;-83
2022/12/10 09:46:50;;;;;;;154.50;34.88;;;-1.70;99.90;;;;;;6166845;23;20012;-79
2022/12/10 09:49:46;;;;;;;126.15;35.53;;;-1.70;99.90;;;;;;6188034;23;20013;-84
2022/12/10 09:52:19;;;;;;;129.98;36.97;;;-1.70;99.90;;;;;;6207669;23;20107;-82
2022/12/10 09:55:01;;;;;;;101.95;34.08;;;-1.70;99.90;;;;;;6156607;23;20023;-79
2022/12/10 09:57:31;;;;;;;148.48;36.65;;;-1.70;99.90;;;;;;6209116;23;20012;-80
2022/12/10 10:00:03;;;;;;;196.85;35.65;;;-1.80;99.90;;;;;;6180349;23;20035;-81
2022/12/10 10:02:30;;;;;;;165.05;34.92;;;-1.50;99.90;;;;;;6182159;23;20012;-81
2022/12/10 10:05:21;;;;;;;137.40;36.90;;;-1.70;99.90;;;;;;6155835;23;20017;-81
2022/12/10 10:07:53;;;;;;;136.77;32.53;;;-1.40;99.90;;;;;;6164086;23;20324;-79
2022/12/10 10:10:35;;;;;;;105.60;34.80;;;-1.60;99.90;;;;;;6159773;23;20316;-79
2022/12/10 10:13:21;;;;;;;118.97;36.90;;;-1.50;99.90;;;;;;6201084;23;20083;-79
2022/12/10 10:15:49;;;;;;;99.07;34.60;;;-1.60;99.90;;;;;;6158333;23;20016;-80
2022/12/10 10:18:36;;;;;;;126.10;36.03;;;-1.20;99.90;;;;;;6157719;23;20024;-77
2022/12/10 10:21:09;;;;;;;116.82;33.63;;;-1.30;99.90;;;;;;6158584;23;20016;-80
2022/12/10 10:23:34;;;;;;;100.72;33.13;;;-1.10;99.90;;;;;;6187348;23;20013;-78
2022/12/10 10:26:00;;;;;;;110.72;34.17;;;-1.30;99.90;;;;;;6162639;23;20019;-83
2022/12/10 10:28:27;;;;;;;131.48;32.90;;;-1.40;99.90;;;;;;6160799;23;20571;-78
2022/12/10 10:30:56;;;;;;;114.80;35.35;;;-1.50;99.90;;;;;;6185254;23;20021;-80
2022/12/10 10:33:22;;;;;;;111.47;35.03;;;-1.40;99.90;;;;;;6160029;23;20009;-82
2022/12/10 10:35:52;;;;;;;97.47;33.55;;;-1.40;99.90;;;;;;6133789;23;20085;-84
2022/12/10 10:38:28;;;;;;;95.97;34.03;;;-0.90;99.90;;;;;;6156090;23;20012;-85
2022/12/10 10:40:59;;;;;;;98.75;31.92;;;-1.30;99.90;;;;;;6151247;23;20134;-80
2022/12/10 10:43:33;;;;;;;119.40;33.65;;;-1.10;99.90;;;;;;6180854;23;20192;-82
2022/12/10 10:46:06;;;;;;;87.03;32.92;;;-1.20;99.90;;;;;;6179146;23;20372;-80
2022/12/10 10:48:32;;;;;;;89.53;32.95;;;-1.20;99.90;;;;;;6209270;23;20340;-81
2022/12/10 10:51:11;;;;;;;105.05;34.17;;;-1.20;99.90;;;;;;6208893;23;20017;-82
2022/12/10 10:53:50;;;;;;;97.18;32.67;;;-0.80;99.90;;;;;;6186099;23;20023;-81
2022/12/10 10:56:21;;;;;;;112.47;31.90;;;-1.00;99.90;;;;;;6185205;23;20016;-83
2022/12/10 10:58:50;;;;;;;118.68;31.02;;;-1.00;99.90;;;;;;6214836;23;20419;-81
2022/12/10 11:05:00;;;;;;;103.55;31.38;;;-0.80;99.90;;;;;;6215506;23;20016;-80
2022/12/10 11:07:34;;;;;;;87.15;30.73;;;-0.90;99.90;;;;;;6215128;23;20087;-81
2022/12/10 11:10:01;;;;;;;95.60;32.88;;;-0.70;99.90;;;;;;6189865;23;20013;-79
2022/12/10 11:12:39;;;;;;;114.47;31.33;;;-0.80;99.90;;;;;;6192483;23;20116;-81
2022/12/10 11:15:31;;;;;;;95.75;29.58;;;-1.00;99.90;;;;;;6212499;23;20335;-81
2022/12/10 11:17:57;;;;;;;101.40;30.75;;;-1.20;99.90;;;;;;6041266;23;20018;-82
2022/12/10 11:20:27;;;;;;;100.80;32.20;;;-1.10;99.90;;;;;;6089859;23;20492;-81
2022/12/10 11:22:58;;;;;;;101.50;30.40;;;-0.80;99.90;;;;;;6066442;23;20063;-82
2022/12/10 11:26:06;;;;;;;79.65;32.05;;;-1.00;99.90;;;;;;6089264;23;20101;-82
2022/12/10 11:28:50;;;;;;;110.78;32.17;;;-0.80;99.90;;;;;;6041853;23;20010;-82
2022/12/10 11:31:43;;;;;;;97.15;32.15;;;-0.80;99.90;;;;;;6038291;23;20719;-82
2022/12/10 11:34:14;;;;;;;86.15;32.50;;;-0.60;99.90;;;;;;6064842;23;20811;-81
2022/12/10 11:36:48;;;;;;;90.20;32.33;;;-0.90;99.90;;;;;;6045377;23;20046;-80
2022/12/10 11:39:35;;;;;;;87.87;33.03;;;-0.70;99.90;;;;;;6104052;23;20548;-80
2022/12/10 11:42:12;;;;;;;92.03;33.50;;;-0.90;99.90;;;;;;6070307;23;20337;-80
2022/12/10 11:45:10;;;;;;;92.80;32.38;;;-0.50;99.90;;;;;;6067511;23;20023;-82
2022/12/10 11:48:19;;;;;;;102.28;32.85;;;-0.50;99.90;;;;;;6033229;23;20024;-84
2022/12/10 11:50:53;;;;;;;102.57;32.92;;;-0.80;99.90;;;;;;5949198;24;20453;-82
2022/12/10 11:53:45;;;;;;;115.90;33.65;;;-0.80;99.90;;;;;;5925926;24;20557;-80
2022/12/10 11:56:30;;;;;;;111.13;32.90;;;-0.80;99.90;;;;;;6023932;23;20559;-80
2022/12/10 11:59:01;;;;;;;93.93;34.42;;;-0.50;99.90;;;;;;6025095;23;20131;-81
2022/12/10 12:01:51;;;;;;;94.72;33.53;;;-0.60;99.90;;;;;;6002724;23;20145;-81
2022/12/10 12:04:49;;;;;;;88.63;33.63;;;-0.80;99.90;;;;;;6000857;23;20034;-81
2022/12/10 12:07:38;;;;;;;100.78;30.75;;;-0.50;99.90;;;;;;6004160;23;20340;-82
2022/12/10 12:10:22;;;;;;;113.25;36.13;;;-0.80;99.90;;;;;;6002302;23;20024;-82
2022/12/10 12:13:05;;;;;;;97.70;36.60;;;-0.70;99.90;;;;;;6027332;23;20064;-80
2022/12/10 12:15:49;;;;;;;110.57;33.65;;;-0.60;99.90;;;;;;6002056;23;20025;-83
2022/12/10 12:18:20;;;;;;;123.00;33.78;;;-0.30;99.90;;;;;;6003012;23;20042;-81
2022/12/10 12:20:52;;;;;;;98.70;34.55;;;-0.60;99.90;;;;;;5978849;23;20080;-82
2022/12/10 12:23:21;;;;;;;103.47;34.63;;;-0.30;99.90;;;;;;6028831;23;20101;-81
2022/12/10 12:25:52;;;;;;;98.10;33.20;;;-0.40;99.90;;;;;;6088384;23;20014;-82
2022/12/10 12:28:31;;;;;;;107.38;34.78;;;-0.60;99.90;;;;;;6150610;23;20017;-82
2022/12/10 12:38:26;;;;;;;98.00;33.13;;;-0.60;99.90;;;;;;6220580;23;20015;-78
2022/12/10 12:41:00;;;;;;;95.35;33.78;;;-0.50;99.90;;;;;;6162651;23;20309;-79
2022/12/10 12:43:35;;;;;;;102.67;36.87;;;-0.60;99.90;;;;;;6185434;23;20104;-81
2022/12/10 12:46:07;;;;;;;112.97;36.13;;;-0.20;99.90;;;;;;6205167;23;20329;-80
2022/12/10 12:49:07;;;;;;;110.72;36.65;;;-0.10;99.90;;;;;;6209646;23;20017;-80
2022/12/10 12:51:38;;;;;;;133.80;36.85;;;-0.50;99.90;;;;;;6040215;23;20089;-80
2022/12/10 12:54:04;;;;;;;130.00;35.42;;;-0.60;99.90;;;;;;6086527;23;20053;-81
2022/12/10 12:56:33;;;;;;;139.80;36.65;;;-0.40;99.90;;;;;;6064459;23;20045;-81
2022/12/10 12:59:01;;;;;;;119.70;37.13;;;-0.20;99.90;;;;;;6064856;23;20026;-80
2022/12/10 13:01:37;;;;;;;180.50;36.78;;;-0.10;99.90;;;;;;6087704;23;20014;-81
2022/12/10 13:04:04;;;;;;;129.02;33.90;;;-0.30;99.90;;;;;;6088328;23;20025;-80
2022/12/10 13:06:32;;;;;;;105.88;33.88;;;-0.60;99.90;;;;;;6066736;23;20101;-82
2022/12/10 13:08:58;;;;;;;136.90;35.50;;;-0.20;99.90;;;;;;6091028;23;20090;-83